Wellington, New Zealand
Current Conditions -  °F | °C
As of 4:00 PM on Friday 28 Nov 2014 (Local Time) from NZWN Reporting Station
Clear Clear  
Wind Chill: 15°   Ceiling: Unl
Heat Index: 15°   Visibility: 6mi
Dew Point:   Wind: 22mph
Humidity: 59%   Direction: 360°N
Pressure: 29.56"   Gusts: NA
Location:  41.29°S, 174.78°E
Report Text: NZWN 280400Z AUTO 36019KT 9999 NCD 15/07 Q1001 BECMG FM050019015KT TEMPO FM0500 6000 SHRAGS FEW020CB
Loading
Personal Weather Stations






























Interactive Weather Map New forecast layout! Learn more

10-Day Weather Forecast

Advertisements
Track Severe Weather on mobile